Time;durP1;ratioP1;P1;durP2;ratioP2;P2;SDS_P1;SDS_P2;PMS_P1;PMS_P2;Temp;Humidity;BMP_temperature;BMP_pressure;BME280_temperature;BME280_humidity;BME280_pressure;Samples;Min_cycle;Max_cycle;Signal;HPM_P1;HPM_P2
2022/11/20 00:02:08;;;;;;;4.10;1.60;;;;;;;19.42;61.56;99905.47;5091095;28;20626;-65
2022/11/20 00:04:34;;;;;;;3.40;1.80;;;;;;;19.42;61.80;99899.75;5052848;28;20699;-65
2022/11/20 00:06:59;;;;;;;2.97;1.67;;;;;;;19.44;61.60;99891.59;5072242;28;20182;-64
2022/11/20 00:09:24;;;;;;;4.03;1.30;;;;;;;19.45;61.69;99893.25;5090070;28;20518;-64
2022/11/20 00:11:50;;;;;;;3.30;1.50;;;;;;;19.41;61.80;99900.97;5090275;28;20610;-65
2022/11/20 00:14:15;;;;;;;3.40;1.80;;;;;;;19.46;61.74;99900.59;5071985;28;20185;-64
2022/11/20 00:16:41;;;;;;;2.57;1.40;;;;;;;19.46;61.55;99909.19;5089901;28;20178;-64
2022/11/20 00:19:06;;;;;;;3.70;1.53;;;;;;;19.44;61.73;99902.22;5089770;28;20195;-65
2022/11/20 00:21:32;;;;;;;2.63;1.67;;;;;;;19.42;61.77;99902.63;5072162;28;20170;-65
2022/11/20 00:23:57;;;;;;;3.47;1.67;;;;;;;19.41;61.77;99905.91;5091260;28;20204;-64
2022/11/20 00:26:24;;;;;;;2.93;1.33;;;;;;;19.40;61.81;99909.94;5091075;28;20207;-65
2022/11/20 00:28:54;;;;;;;3.43;1.50;;;;;;;19.41;61.73;99915.28;5073076;28;20178;-65
2022/11/20 00:31:20;;;;;;;3.10;1.30;;;;;;;19.42;61.82;99907.53;5073312;28;20495;-64
2022/11/20 00:33:45;;;;;;;4.27;1.73;;;;;;;19.42;61.81;99910.41;5090775;28;20405;-65
2022/11/20 00:36:13;;;;;;;2.43;1.40;;;;;;;19.44;61.86;99899.34;5072681;28;20192;-64
2022/11/20 00:38:39;;;;;;;3.30;1.70;;;;;;;19.41;61.90;99900.97;5073294;28;20222;-64
2022/11/20 00:41:06;;;;;;;3.60;1.70;;;;;;;19.38;61.90;99900.94;5056228;28;20813;-64
2022/11/20 00:43:32;;;;;;;2.83;1.40;;;;;;;19.39;61.86;99903.44;5089718;28;20188;-64
2022/11/20 00:45:58;;;;;;;3.20;1.30;;;;;;;19.40;61.82;99898.50;5056236;28;20531;-64
2022/11/20 00:48:24;;;;;;;3.03;1.67;;;;;;;19.40;61.82;99899.34;5089758;28;20238;-64
2022/11/20 00:50:49;;;;;;;3.33;1.20;;;;;;;19.38;61.89;99898.94;5090931;28;20408;-65
2022/11/20 00:53:15;;;;;;;5.80;1.67;;;;;;;19.40;61.88;99910.78;5072741;28;20583;-64
2022/11/20 00:55:40;;;;;;;3.40;1.70;;;;;;;19.40;61.83;99907.09;5075970;28;20170;-64
2022/11/20 00:58:06;;;;;;;2.30;1.43;;;;;;;19.41;62.06;99900.19;5094530;28;20225;-65
2022/11/20 01:00:31;;;;;;;2.77;1.73;;;;;;;19.37;61.86;99905.03;5076306;28;20162;-64
2022/11/20 01:02:57;;;;;;;3.50;1.50;;;;;;;19.35;62.02;99904.59;5094527;28;20167;-64
2022/11/20 01:05:22;;;;;;;2.20;1.30;;;;;;;19.38;61.73;99900.94;5094134;28;20600;-65
2022/11/20 01:07:47;;;;;;;2.77;1.33;;;;;;;19.37;61.90;99913.63;5076510;28;20506;-64
2022/11/20 01:10:13;;;;;;;5.20;1.60;;;;;;;19.39;61.68;99914.88;5075381;28;20637;-64
2022/11/20 01:12:38;;;;;;;2.70;1.50;;;;;;;19.36;61.89;99909.94;5076358;28;20610;-65
2022/11/20 01:15:04;;;;;;;3.23;1.57;;;;;;;19.42;61.67;99916.94;5093898;28;20194;-64
2022/11/20 01:17:31;;;;;;;4.13;1.53;;;;;;;19.38;61.66;99912.41;5075255;28;20226;-65
2022/11/20 01:19:56;;;;;;;3.13;1.47;;;;;;;19.39;61.79;99912.00;5093908;28;20209;-64
2022/11/20 01:22:22;;;;;;;2.20;1.40;;;;;;;19.38;61.73;99910.38;5094217;28;20417;-64
2022/11/20 01:24:47;;;;;;;4.23;1.63;;;;;;;19.37;61.76;99908.72;5075913;28;20588;-64
2022/11/20 01:27:13;;;;;;;2.10;1.20;;;;;;;19.34;61.80;99918.09;5094300;28;20634;-64
2022/11/20 01:29:38;;;;;;;3.13;1.53;;;;;;;19.37;61.92;99917.28;5075658;28;20697;-64
2022/11/20 01:32:04;;;;;;;3.80;1.60;;;;;;;19.35;61.88;99921.78;5093360;28;20177;-65
2022/11/20 01:34:29;;;;;;;2.30;1.60;;;;;;;19.32;61.94;99914.78;5093721;28;20182;-65
2022/11/20 01:36:55;;;;;;;3.27;1.77;;;;;;;19.35;61.83;99925.47;5094018;28;20218;-65
2022/11/20 01:39:22;;;;;;;2.97;1.60;;;;;;;19.34;61.83;99923.84;5093961;28;20187;-64
2022/11/20 01:44:51;;;;;;;2.10;1.33;;;;;;;19.36;61.79;99920.56;5077673;28;20423;-64
2022/11/20 01:47:29;;;;;;;2.87;1.57;;;;;;;19.34;61.84;99923.84;5073356;28;20460;-65
2022/11/20 01:50:19;;;;;;;2.40;1.23;;;;;;;19.32;61.93;99914.00;5073693;28;20846;-64
2022/11/20 01:52:53;;;;;;;2.60;1.37;;;;;;;19.32;61.85;99902.53;5093262;28;20506;-65
2022/11/20 01:55:21;;;;;;;2.60;1.20;;;;;;;19.34;61.95;99906.66;5058654;28;20436;-65
2022/11/20 01:57:46;;;;;;;2.73;1.43;;;;;;;19.32;61.93;99902.53;5075081;28;20490;-65
2022/11/20 02:00:37;;;;;;;2.30;1.40;;;;;;;19.32;61.87;99903.34;5093406;28;20424;-65
2022/11/20 02:03:13;;;;;;;3.93;1.43;;;;;;;19.32;61.84;99909.06;5085759;28;20186;-65
2022/11/20 02:05:49;;;;;;;2.63;1.47;;;;;;;19.34;61.90;99908.69;5075053;28;20475;-65
2022/11/20 02:08:15;;;;;;;3.63;1.67;;;;;;;19.34;61.88;99912.38;5076186;28;20396;-66
2022/11/20 02:10:40;;;;;;;2.97;1.80;;;;;;;19.31;61.91;99907.44;5059568;28;20809;-65
2022/11/20 02:15:50;;;;;;;2.83;1.60;;;;;;;19.27;62.04;99906.56;5078289;28;20208;-66
2022/11/20 02:18:16;;;;;;;2.50;1.73;;;;;;;19.27;62.17;99902.91;5093423;28;20474;-65
2022/11/20 02:20:42;;;;;;;2.70;1.40;;;;;;;19.30;62.02;99905.78;5058886;28;20167;-66
2022/11/20 02:23:25;;;;;;;2.20;1.30;;;;;;;19.33;61.88;99909.91;5058711;28;20451;-66
2022/11/20 02:25:50;;;;;;;3.30;1.37;;;;;;;19.33;61.73;99904.19;5074983;28;20613;-65
2022/11/20 02:28:17;;;;;;;3.30;1.17;;;;;;;19.30;61.80;99897.22;5074778;28;20449;-65
2022/11/20 02:30:42;;;;;;;2.60;1.63;;;;;;;19.31;61.85;99901.72;5093590;28;20224;-66
2022/11/20 02:33:07;;;;;;;3.70;1.43;;;;;;;19.29;61.74;99898.44;5093725;28;20798;-66
2022/11/20 02:35:33;;;;;;;2.43;1.00;;;;;;;19.29;62.11;99898.44;5076327;28;20191;-65
2022/11/20 02:38:00;;;;;;;2.20;1.13;;;;;;;19.29;62.06;99898.44;5094010;28;20210;-65
2022/11/20 02:40:25;;;;;;;3.23;1.40;;;;;;;19.28;61.86;99896.78;5058741;28;20668;-65
2022/11/20 02:42:57;;;;;;;2.67;1.57;;;;;;;19.30;62.06;99893.50;5075255;28;20507;-65
2022/11/20 02:45:23;;;;;;;2.37;1.30;;;;;;;19.28;62.03;99896.78;5075077;28;20284;-65
2022/11/20 02:47:49;;;;;;;2.10;1.20;;;;;;;19.28;61.92;99891.06;5075295;28;20500;-65
2022/11/20 02:50:14;;;;;;;2.40;1.40;;;;;;;19.28;61.96;99891.06;5058820;28;20261;-65
2022/11/20 02:52:39;;;;;;;2.63;1.17;;;;;;;19.29;61.85;99892.72;5093377;28;20166;-65
2022/11/20 02:55:06;;;;;;;3.53;1.50;;;;;;;19.29;61.84;99895.56;5093526;28;20798;-65
2022/11/20 02:57:31;;;;;;;3.30;1.47;;;;;;;19.26;61.80;99898.41;5093046;28;20202;-65
2022/11/20 02:59:56;;;;;;;2.30;1.30;;;;;;;19.28;61.73;99898.81;5093192;28;20498;-65
2022/11/20 03:02:22;;;;;;;2.73;1.43;;;;;;;19.27;61.84;99900.84;5093131;28;20229;-65
2022/11/20 03:04:47;;;;;;;2.17;1.10;;;;;;;19.25;61.89;99903.28;5078238;28;20605;-65
2022/11/20 03:07:13;;;;;;;2.30;1.17;;;;;;;19.24;62.10;99907.38;5074684;28;20633;-66
2022/11/20 03:09:38;;;;;;;2.57;1.17;;;;;;;19.24;62.09;99904.53;5093113;28;20656;-65
2022/11/20 03:12:04;;;;;;;2.33;1.17;;;;;;;19.28;61.81;99901.69;5074824;28;20541;-65
2022/11/20 03:14:29;;;;;;;2.17;1.20;;;;;;;19.27;61.76;99906.56;5092770;28;20166;-65
2022/11/20 03:16:55;;;;;;;2.80;1.67;;;;;;;19.27;61.79;99903.72;5074333;28;20181;-65
2022/11/20 03:19:20;;;;;;;2.27;1.37;;;;;;;19.27;61.94;99900.84;5072648;28;20190;-65
2022/11/20 03:21:46;;;;;;;3.00;1.40;;;;;;;19.25;61.83;99903.28;5092708;28;20166;-65
2022/11/20 03:24:12;;;;;;;2.60;1.57;;;;;;;19.27;61.83;99905.78;5092596;28;20167;-65
2022/11/20 03:26:38;;;;;;;2.07;1.30;;;;;;;19.25;61.75;99896.75;5074306;28;20209;-65
2022/11/20 03:29:04;;;;;;;2.50;1.40;;;;;;;19.23;61.94;99908.59;5074203;28;20208;-65
2022/11/20 03:31:31;;;;;;;2.10;1.20;;;;;;;19.23;61.95;99904.91;5092492;28;20876;-65
2022/11/20 03:33:57;;;;;;;2.70;1.50;;;;;;;19.24;61.81;99901.66;5074397;28;20166;-65
2022/11/20 03:36:23;;;;;;;2.37;1.40;;;;;;;19.23;61.96;99902.88;5089018;28;20444;-65
2022/11/20 03:38:48;;;;;;;2.77;1.67;;;;;;;19.23;61.79;99902.06;5074002;28;20467;-65
2022/11/20 03:41:18;;;;;;;2.57;1.40;;;;;;;19.21;61.86;99893.81;5089306;28;20258;-65
2022/11/20 03:44:00;;;;;;;2.50;1.20;;;;;;;19.23;61.81;99900.03;5091963;28;20195;-65
2022/11/20 03:46:26;;;;;;;2.00;1.10;;;;;;;19.20;61.80;99894.22;5091971;28;20495;-65
2022/11/20 03:48:51;;;;;;;2.80;1.60;;;;;;;19.21;61.88;99893.81;5073825;28;20963;-65
2022/11/20 03:51:20;;;;;;;2.73;1.73;;;;;;;19.25;61.83;99891.00;5073146;28;20533;-64
2022/11/20 03:53:46;;;;;;;1.77;0.90;;;;;;;19.24;61.82;99895.09;5073947;28;20257;-65
2022/11/20 03:56:13;;;;;;;2.47;1.37;;;;;;;19.25;61.69;99893.88;5056970;28;20423;-65
2022/11/20 03:58:42;;;;;;;1.93;1.13;;;;;;;19.23;61.84;99893.47;5091337;28;20952;-65
2022/11/20 04:01:11;;;;;;;2.07;1.30;;;;;;;19.23;61.74;99891.44;5090309;28;20431;-65
2022/11/20 04:03:37;;;;;;;2.47;1.70;;;;;;;19.21;61.81;99890.16;5084023;28;20520;-65
2022/11/20 04:06:08;;;;;;;2.10;1.37;;;;;;;19.21;61.84;99890.97;5060384;28;20447;-65
2022/11/20 04:08:34;;;;;;;2.50;1.33;;;;;;;19.20;61.92;99889.31;5061239;28;20253;-65
2022/11/20 04:11:12;;;;;;;2.20;1.40;;;;;;;19.22;61.69;99881.19;5092305;28;20405;-65
2022/11/20 04:13:37;;;;;;;2.00;1.13;;;;;;;19.17;61.93;99892.97;5091320;28;20194;-65
2022/11/20 04:16:03;;;;;;;2.50;1.30;;;;;;;19.21;61.86;99890.97;5091330;28;20439;-65
2022/11/20 04:18:29;;;;;;;2.20;1.43;;;;;;;19.21;61.85;99890.97;5091060;28;20202;-65
2022/11/20 04:20:57;;;;;;;2.30;1.30;;;;;;;19.19;61.88;99886.84;5055899;28;21040;-65
2022/11/20 04:23:22;;;;;;;3.03;1.27;;;;;;;19.21;61.63;99882.38;5073110;28;20266;-65
2022/11/20 04:25:47;;;;;;;2.30;1.30;;;;;;;19.19;62.02;99892.56;5091281;28;20474;-65
2022/11/20 04:28:13;;;;;;;1.87;1.30;;;;;;;19.22;61.62;99904.06;5091449;28;20159;-65
2022/11/20 04:30:38;;;;;;;3.93;1.33;;;;;;;19.19;61.70;99896.28;5095589;28;20167;-65
2022/11/20 04:33:04;;;;;;;2.20;1.10;;;;;;;19.18;61.86;99890.94;5077327;28;20197;-65
2022/11/20 04:35:29;;;;;;;2.20;1.40;;;;;;;19.18;61.77;99886.03;5077177;28;20193;-65
2022/11/20 04:37:54;;;;;;;2.13;1.37;;;;;;;19.18;61.82;99886.03;5095634;28;20217;-65
2022/11/20 04:40:20;;;;;;;2.07;1.17;;;;;;;19.17;61.78;99892.16;5095703;28;20154;-65
2022/11/20 04:42:45;;;;;;;1.70;1.00;;;;;;;19.20;61.73;99886.47;5095916;28;20526;-65
2022/11/20 04:45:11;;;;;;;2.40;1.50;;;;;;;19.19;61.66;99887.69;5095453;28;20167;-65
2022/11/20 04:47:36;;;;;;;1.87;1.07;;;;;;;19.20;61.54;99889.31;5095295;28;20734;-65
2022/11/20 04:50:02;;;;;;;4.33;1.53;;;;;;;19.21;61.72;99879.50;5095326;28;20162;-65
2022/11/20 04:52:27;;;;;;;2.33;1.20;;;;;;;19.19;61.66;99887.69;5076728;28;20175;-65
2022/11/20 04:54:53;;;;;;;1.97;1.10;;;;;;;19.18;61.75;99880.31;5095044;28;20221;-65
2022/11/20 04:57:19;;;;;;;2.10;1.30;;;;;;;19.19;61.61;99886.84;5095355;28;20166;-65
2022/11/20 04:59:44;;;;;;;2.63;1.30;;;;;;;19.21;61.61;99881.56;5075771;28;20202;-65
2022/11/20 05:02:10;;;;;;;2.47;1.30;;;;;;;19.20;61.60;99882.75;5095105;28;20227;-65
2022/11/20 05:04:35;;;;;;;2.50;1.30;;;;;;;19.20;61.81;99877.88;5073388;28;20601;-65
2022/11/20 05:07:01;;;;;;;2.37;1.30;;;;;;;19.19;61.79;99884.81;5093490;28;20645;-65
2022/11/20 05:09:26;;;;;;;3.23;1.40;;;;;;;19.17;61.90;99878.66;5076638;28;20500;-65
2022/11/20 05:11:52;;;;;;;2.20;1.17;;;;;;;19.21;61.61;99878.72;5094877;28;20182;-65
2022/11/20 05:14:17;;;;;;;2.43;1.37;;;;;;;19.19;61.70;99875.41;5094679;28;20182;-65
2022/11/20 05:16:42;;;;;;;1.77;0.97;;;;;;;19.18;61.58;99876.63;5076752;28;20178;-64
2022/11/20 05:19:08;;;;;;;2.63;1.43;;;;;;;19.19;61.65;99879.09;5094244;28;20220;-65
2022/11/20 05:21:33;;;;;;;1.90;1.13;;;;;;;19.19;61.97;99867.66;5095255;28;20258;-65
2022/11/20 05:23:59;;;;;;;2.70;1.20;;;;;;;19.20;61.57;99866.44;5114175;28;20605;-65
2022/11/20 05:26:24;;;;;;;2.80;1.43;;;;;;;19.21;61.58;99872.97;5095461;28;20169;-65
2022/11/20 05:28:50;;;;;;;2.20;1.17;;;;;;;19.22;61.62;99872.59;5095552;28;20503;-65
2022/11/20 05:31:20;;;;;;;2.40;1.40;;;;;;;19.19;61.76;99876.22;5095465;28;20188;-65
2022/11/20 05:33:45;;;;;;;2.70;1.60;;;;;;;19.19;61.57;99873.38;5078917;28;20166;-65
2022/11/20 05:36:12;;;;;;;2.40;1.27;;;;;;;19.19;61.86;99876.22;5102056;28;20436;-65
2022/11/20 05:38:37;;;;;;;2.30;1.10;;;;;;;19.17;61.82;99877.84;5092888;28;20198;-65
2022/11/20 05:41:04;;;;;;;2.17;1.10;;;;;;;19.20;61.62;99874.19;5040368;28;20839;-65
2022/11/20 05:43:33;;;;;;;2.00;1.00;;;;;;;19.22;61.63;99881.19;5074793;28;20591;-65
2022/11/20 05:45:58;;;;;;;2.00;1.20;;;;;;;19.19;61.73;99866.81;5094546;28;20552;-65
2022/11/20 05:48:24;;;;;;;2.20;1.10;;;;;;;19.24;61.55;99872.22;5058715;28;20432;-65
2022/11/20 05:50:49;;;;;;;2.40;1.27;;;;;;;19.20;61.61;99863.56;5059254;28;20197;-65
2022/11/20 05:53:15;;;;;;;2.20;1.10;;;;;;;19.19;61.64;99870.50;5075849;28;20226;-65
2022/11/20 05:55:40;;;;;;;1.60;0.80;;;;;;;19.19;61.84;99873.38;5075930;28;20185;-65
2022/11/20 05:58:05;;;;;;;2.10;1.20;;;;;;;19.18;61.65;99868.88;5075295;28;20205;-65
2022/11/20 06:00:31;;;;;;;1.90;1.20;;;;;;;19.20;61.52;99877.03;5094079;28;20190;-65
2022/11/20 06:02:56;;;;;;;2.30;1.10;;;;;;;19.23;61.51;99870.56;5091417;28;20224;-65
2022/11/20 06:05:22;;;;;;;1.90;0.97;;;;;;;19.21;61.42;99873.78;5078665;28;20198;-65
2022/11/20 06:07:47;;;;;;;1.93;1.10;;;;;;;19.18;61.63;99868.88;5093840;28;20154;-65
2022/11/20 06:10:13;;;;;;;1.80;1.10;;;;;;;19.21;61.89;99875.84;5093990;28;20167;-64
2022/11/20 06:12:38;;;;;;;2.00;1.30;;;;;;;19.20;61.57;99874.19;5075368;28;20178;-65
2022/11/20 06:15:04;;;;;;;2.37;1.30;;;;;;;19.20;61.54;99875.00;5093054;28;20193;-65
2022/11/20 06:17:30;;;;;;;2.10;1.13;;;;;;;19.24;61.48;99881.63;5093779;28;20162;-65
2022/11/20 06:19:55;;;;;;;2.73;1.30;;;;;;;19.19;61.42;99879.09;5075639;28;20401;-65
2022/11/20 06:22:21;;;;;;;2.40;1.50;;;;;;;19.18;61.69;99880.31;5093522;28;20533;-65
2022/11/20 06:24:46;;;;;;;2.03;1.03;;;;;;;19.21;61.47;99884.44;5058948;28;20780;-65
2022/11/20 06:27:12;;;;;;;1.93;1.17;;;;;;;19.19;61.59;99881.97;5093453;28;20182;-65
2022/11/20 06:29:37;;;;;;;1.83;1.10;;;;;;;19.18;61.62;99885.22;5093728;28;20533;-65
2022/11/20 06:32:03;;;;;;;2.57;1.37;;;;;;;19.22;61.77;99875.47;5075572;28;20633;-65
2022/11/20 06:34:28;;;;;;;2.40;1.17;;;;;;;19.18;61.55;99874.59;5093755;28;20183;-65
2022/11/20 06:36:54;;;;;;;1.80;1.10;;;;;;;19.20;61.35;99877.88;5058870;28;20182;-65
2022/11/20 06:39:19;;;;;;;1.80;1.00;;;;;;;19.22;61.64;99875.47;5075759;28;20273;-65
2022/11/20 06:41:44;;;;;;;2.67;1.00;;;;;;;19.20;61.43;99871.31;5075048;28;20175;-65
2022/11/20 06:44:10;;;;;;;2.23;1.10;;;;;;;19.23;61.60;99873.44;5093226;28;20170;-65
2022/11/20 06:46:35;;;;;;;1.90;1.03;;;;;;;19.23;61.39;99882.00;5075113;28;20194;-65
2022/11/20 06:49:01;;;;;;;2.90;1.47;;;;;;;19.20;61.13;99880.72;5075205;28;20231;-65
2022/11/20 06:51:26;;;;;;;2.10;1.20;;;;;;;19.23;61.33;99882.84;5092513;28;20186;-65
2022/11/20 06:53:52;;;;;;;2.23;1.30;;;;;;;19.19;61.58;99881.97;5093197;28;20230;-65
2022/11/20 06:56:17;;;;;;;2.23;1.27;;;;;;;19.25;61.22;99883.25;5058111;28;20661;-65
2022/11/20 06:58:43;;;;;;;2.37;1.10;;;;;;;19.21;61.37;99882.38;5093000;28;20198;-65
2022/11/20 07:01:12;;;;;;;2.20;1.30;;;;;;;19.23;61.35;99887.75;5091239;28;20174;-65
2022/11/20 07:03:38;;;;;;;2.50;1.23;;;;;;;19.23;61.55;99896.31;5057976;28;20715;-65
2022/11/20 07:06:04;;;;;;;2.17;1.30;;;;;;;19.19;61.49;99898.28;5074763;28;20428;-65
2022/11/20 07:08:29;;;;;;;2.20;1.20;;;;;;;19.20;61.27;99899.94;5058050;28;20167;-65
2022/11/20 07:10:59;;;;;;;2.10;1.27;;;;;;;19.24;61.32;99900.81;5074183;28;20170;-65
2022/11/20 07:13:25;;;;;;;1.77;0.93;;;;;;;19.21;61.45;99902.41;5058321;28;20174;-65
2022/11/20 07:15:50;;;;;;;2.03;1.07;;;;;;;19.21;61.44;99908.13;5092706;28;20769;-65
2022/11/20 07:18:16;;;;;;;2.10;1.20;;;;;;;19.20;61.47;99900.75;5092507;28;20202;-65
2022/11/20 07:20:41;;;;;;;2.10;1.27;;;;;;;19.20;61.47;99906.50;5092622;28;20617;-65
2022/11/20 07:23:06;;;;;;;2.03;1.13;;;;;;;19.23;61.57;99914.34;5074310;28;20166;-65
2022/11/20 07:25:32;;;;;;;2.37;1.40;;;;;;;19.21;61.26;99911.00;5091344;28;20166;-65
2022/11/20 07:27:58;;;;;;;2.03;1.00;;;;;;;19.21;61.36;99908.13;5056138;28;20197;-65
2022/11/20 07:30:24;;;;;;;2.07;1.10;;;;;;;19.21;61.33;99913.06;5092463;28;20260;-65
2022/11/20 07:32:53;;;;;;;2.40;1.30;;;;;;;19.20;61.25;99919.97;5074444;28;20190;-65
2022/11/20 07:35:19;;;;;;;2.67;1.17;;;;;;;19.21;61.38;99913.06;5056434;28;20486;-66
2022/11/20 07:37:45;;;;;;;2.37;1.43;;;;;;;19.19;61.53;99927.75;5036426;28;20433;-65
2022/11/20 07:40:12;;;;;;;2.07;1.00;;;;;;;19.20;61.42;99920.81;5073858;28;20423;-65
2022/11/20 07:42:37;;;;;;;2.67;1.47;;;;;;;19.22;61.27;99918.38;5091765;28;20520;-65
2022/11/20 07:45:03;;;;;;;2.30;1.40;;;;;;;19.20;61.41;99926.53;5089032;28;20429;-65
2022/11/20 07:47:28;;;;;;;2.90;1.47;;;;;;;19.20;61.47;99929.38;5092629;28;20167;-65
2022/11/20 07:49:54;;;;;;;1.87;1.00;;;;;;;19.19;61.55;99922.03;5092461;28;20163;-66
2022/11/20 07:52:19;;;;;;;1.70;1.03;;;;;;;19.23;61.36;99925.78;5091253;28;20482;-65
2022/11/20 07:54:45;;;;;;;2.10;1.23;;;;;;;19.20;61.34;99929.38;5054319;28;20688;-65
2022/11/20 07:57:10;;;;;;;2.07;1.20;;;;;;;19.22;61.29;99926.97;5091139;28;20174;-65
2022/11/20 07:59:35;;;;;;;2.47;1.10;;;;;;;19.17;61.48;99935.88;5073732;28;20574;-65
2022/11/20 08:02:01;;;;;;;2.17;1.20;;;;;;;19.20;61.35;99923.66;5091621;28;20166;-65
2022/11/20 08:04:26;;;;;;;2.40;1.30;;;;;;;19.18;61.41;99934.69;5060356;28;20195;-65
2022/11/20 08:06:52;;;;;;;2.53;1.30;;;;;;;19.23;61.13;99924.94;5092676;28;20189;-65
2022/11/20 08:09:17;;;;;;;2.10;1.17;;;;;;;19.19;61.48;99942.06;5090146;28;20213;-65
2022/11/20 08:14:27;;;;;;;1.50;0.80;;;;;;;19.20;61.33;99940.00;5086399;28;20633;-65
2022/11/20 08:16:53;;;;;;;1.63;0.90;;;;;;;19.23;61.22;99940.09;5076824;28;20429;-65
2022/11/20 08:19:18;;;;;;;2.00;1.27;;;;;;;19.23;61.22;99951.53;5071207;28;20313;-65
2022/11/20 08:21:44;;;;;;;2.37;1.17;;;;;;;19.25;61.03;99953.97;5050920;28;20183;-65
2022/11/20 08:24:09;;;;;;;2.30;1.00;;;;;;;19.22;61.36;99952.72;5076180;28;20228;-65
2022/11/20 08:26:36;;;;;;;1.67;0.93;;;;;;;19.21;61.33;99953.91;5057713;28;20187;-65
2022/11/20 08:29:02;;;;;;;1.97;1.30;;;;;;;19.23;61.35;99962.16;5057537;28;20509;-66
2022/11/20 08:31:27;;;;;;;2.23;1.10;;;;;;;19.19;61.47;99964.94;5075422;28;20466;-66
2022/11/20 08:33:53;;;;;;;3.40;1.17;;;;;;;19.21;61.45;99965.38;5086965;28;20208;-66
2022/11/20 08:36:18;;;;;;;2.53;1.30;;;;;;;19.24;61.19;99973.22;5077127;28;20186;-65
2022/11/20 08:38:51;;;;;;;1.93;1.27;;;;;;;19.21;61.24;99971.09;5095854;28;20198;-65
2022/11/20 08:41:30;;;;;;;1.93;1.07;;;;;;;19.17;61.44;99975.94;5094062;28;20173;-66
2022/11/20 08:43:56;;;;;;;2.07;0.90;;;;;;;19.20;61.37;99972.31;5079332;28;20492;-66
2022/11/20 08:46:26;;;;;;;2.20;1.10;;;;;;;19.23;61.39;99968.72;5095552;28;20552;-66
2022/11/20 08:48:51;;;;;;;2.00;1.07;;;;;;;19.22;61.26;99975.63;5077835;28;20413;-66
2022/11/20 08:51:17;;;;;;;1.80;1.10;;;;;;;19.22;61.35;99975.63;5076981;28;20768;-65
2022/11/20 08:53:42;;;;;;;1.70;0.90;;;;;;;19.25;61.28;99982.59;5076875;28;20226;-66
2022/11/20 08:56:09;;;;;;;1.60;1.00;;;;;;;19.23;61.21;99988.75;5073373;28;20187;-66
2022/11/20 08:58:35;;;;;;;1.80;1.10;;;;;;;19.25;61.18;99983.44;5087482;28;20217;-66
2022/11/20 09:01:00;;;;;;;2.50;0.93;;;;;;;19.27;61.15;99992.44;5095095;28;20907;-65
2022/11/20 09:03:27;;;;;;;1.80;1.00;;;;;;;19.23;61.30;99980.16;5082826;28;20520;-66
2022/11/20 09:05:57;;;;;;;2.07;1.10;;;;;;;19.23;61.17;99983.03;5086660;28;20277;-66
2022/11/20 09:08:23;;;;;;;2.27;1.00;;;;;;;19.26;61.08;99990.81;5074151;28;20429;-66
2022/11/20 09:10:54;;;;;;;2.97;1.20;;;;;;;19.21;61.26;99981.72;5052774;28;20440;-66
2022/11/20 09:13:20;;;;;;;2.10;1.20;;;;;;;19.24;61.16;99993.25;5087308;28;20251;-66
2022/11/20 09:15:46;;;;;;;3.10;1.40;;;;;;;19.23;61.14;99997.34;5069180;28;20412;-66
2022/11/20 09:18:11;;;;;;;1.70;1.03;;;;;;;19.20;61.31;99992.34;5065408;28;20478;-65
2022/11/20 09:20:36;;;;;;;5.27;1.40;;;;;;;19.23;61.20;99996.50;5083767;28;20217;-65
2022/11/20 09:23:02;;;;;;;1.80;0.93;;;;;;;19.23;61.39;99994.47;5074614;28;20175;-66
2022/11/20 09:25:28;;;;;;;2.20;1.07;;;;;;;19.22;61.24;100004.25;5060455;28;20195;-66
2022/11/20 09:27:57;;;;;;;1.70;0.90;;;;;;;19.21;61.21;99999.72;5066343;28;20183;-67
2022/11/20 09:30:22;;;;;;;1.90;0.90;;;;;;;19.23;61.23;100008.78;5077001;28;20436;-66
2022/11/20 09:32:48;;;;;;;2.10;1.00;;;;;;;19.23;61.39;99997.34;5079681;28;20429;-66
2022/11/20 09:35:14;;;;;;;2.63;0.93;;;;;;;19.25;61.30;100006.34;5085664;28;20174;-66
2022/11/20 09:37:40;;;;;;;1.80;1.03;;;;;;;19.16;61.50;100005.78;5079992;28;20223;-66
2022/11/20 09:40:06;;;;;;;1.70;1.00;;;;;;;19.20;61.29;100014.41;5068410;28;20899;-66
2022/11/20 09:42:39;;;;;;;2.30;1.17;;;;;;;19.26;61.07;100013.69;5087298;28;20186;-66
2022/11/20 09:45:29;;;;;;;2.40;1.40;;;;;;;19.24;61.15;100015.31;5064761;28;20531;-66
2022/11/20 09:48:32;;;;;;;1.90;1.10;;;;;;;19.25;61.18;100016.94;5064693;28;20414;-66
2022/11/20 09:51:16;;;;;;;2.10;1.00;;;;;;;19.20;61.34;100015.25;5081657;28;20762;-65
2022/11/20 09:54:00;;;;;;;1.63;0.93;;;;;;;19.21;61.02;100011.16;5077292;28;20834;-65
2022/11/20 09:56:28;;;;;;;2.33;1.20;;;;;;;19.26;61.15;100018.63;5085000;28;20420;-67
2022/11/20 09:58:59;;;;;;;1.70;1.00;;;;;;;19.21;61.35;100024.66;5060504;28;20563;-64
2022/11/20 10:01:26;;;;;;;2.40;1.30;;;;;;;19.20;61.24;100020.97;5071333;28;20857;-65
2022/11/20 10:03:58;;;;;;;2.17;1.03;;;;;;;19.19;61.51;100018.50;5056617;28;20525;-65
2022/11/20 10:06:31;;;;;;;1.60;0.90;;;;;;;19.19;61.60;100012.75;5078780;28;20416;-63
2022/11/20 10:09:12;;;;;;;1.97;1.13;;;;;;;19.21;60.95;100005.44;5072453;28;21195;-64
2022/11/20 10:11:59;;;;;;;1.90;1.10;;;;;;;19.16;61.44;100011.50;5074384;28;20475;-64
2022/11/20 10:15:01;;;;;;;2.10;1.10;;;;;;;19.21;61.24;100016.06;5076185;28;20488;-65
2022/11/20 10:18:04;;;;;;;1.97;1.07;;;;;;;19.22;61.23;100018.56;5060063;28;20486;-65
2022/11/20 10:20:38;;;;;;;2.67;1.07;;;;;;;19.17;61.33;100010.28;5078771;28;20427;-64
2022/11/20 10:23:29;;;;;;;2.07;1.10;;;;;;;19.21;61.37;100005.44;5083471;28;20452;-65
2022/11/20 10:26:03;;;;;;;2.10;1.13;;;;;;;19.21;61.29;100005.44;5059578;28;20436;-65
2022/11/20 10:28:46;;;;;;;5.00;1.37;;;;;;;19.23;61.16;99997.34;5074558;28;20448;-65
2022/11/20 10:31:17;;;;;;;1.60;0.90;;;;;;;19.22;61.16;100001.38;5067321;28;21205;-65
2022/11/20 10:33:44;;;;;;;2.20;1.20;;;;;;;19.21;61.25;99999.72;5062652;28;20826;-66
2022/11/20 10:36:16;;;;;;;1.77;0.80;;;;;;;19.24;61.25;99987.53;5074967;28;20440;-66
2022/11/20 10:38:44;;;;;;;1.80;0.97;;;;;;;19.23;61.14;99996.50;5057512;28;20467;-66
2022/11/20 10:41:25;;;;;;;1.80;1.03;;;;;;;19.23;61.22;99996.50;5057646;28;20477;-66
2022/11/20 10:44:14;;;;;;;2.00;0.93;;;;;;;19.18;61.46;99986.22;5058951;28;20454;-65
2022/11/20 10:46:44;;;;;;;3.00;1.10;;;;;;;19.19;61.25;99982.13;5072928;28;20417;-65
2022/11/20 10:49:14;;;;;;;2.00;0.97;;;;;;;19.24;61.09;99980.97;5057996;28;20420;-65
2022/11/20 10:51:49;;;;;;;1.60;0.83;;;;;;;19.25;61.01;99977.72;5057438;28;20425;-64
2022/11/20 10:54:21;;;;;;;2.10;1.00;;;;;;;19.22;61.34;99978.50;5057101;28;21226;-64
2022/11/20 10:56:49;;;;;;;1.63;0.80;;;;;;;19.22;61.22;99967.03;5056787;28;20433;-64
2022/11/20 10:59:23;;;;;;;2.37;1.27;;;;;;;19.23;61.19;99971.56;5068013;28;20464;-64
2022/11/20 11:01:49;;;;;;;2.10;1.00;;;;;;;19.23;61.22;99956.44;5061374;28;21208;-65
2022/11/20 11:04:34;;;;;;;1.90;1.00;;;;;;;19.26;61.04;99956.44;5073142;28;20446;-64
2022/11/20 11:07:16;;;;;;;1.77;0.87;;;;;;;19.24;61.01;99953.19;5072958;28;20182;-65
2022/11/20 11:09:50;;;;;;;2.00;1.10;;;;;;;19.26;61.16;99938.47;5064323;28;20427;-64
2022/11/20 11:12:16;;;;;;;1.80;0.93;;;;;;;19.27;60.94;99948.69;5057617;28;20475;-64
2022/11/20 11:14:52;;;;;;;2.00;1.00;;;;;;;19.28;60.84;99936.88;5057595;28;20421;-64
2022/11/20 11:17:31;;;;;;;1.70;1.00;;;;;;;19.27;60.98;99929.47;5055595;28;20183;-64
2022/11/20 11:20:17;;;;;;;1.70;0.90;;;;;;;19.26;60.91;99927.03;5057890;28;20459;-67
2022/11/20 11:22:46;;;;;;;2.53;1.30;;;;;;;19.25;61.22;99931.09;5057205;28;20417;-64
2022/11/20 11:25:23;;;;;;;2.07;1.23;;;;;;;19.29;60.93;99921.34;5055994;28;20417;-64
2022/11/20 11:27:49;;;;;;;2.10;1.00;;;;;;;19.27;61.11;99918.03;5041545;28;20421;-64
2022/11/20 11:30:16;;;;;;;2.63;1.20;;;;;;;19.31;60.91;99907.44;5072580;28;20444;-64
2022/11/20 11:32:42;;;;;;;2.40;1.30;;;;;;;19.31;61.04;99913.16;5066301;28;20511;-66
2022/11/20 11:35:22;;;;;;;1.90;1.10;;;;;;;19.30;60.83;99910.69;5040594;28;20435;-66
2022/11/20 11:37:48;;;;;;;2.27;0.80;;;;;;;19.28;60.48;99907.41;5063365;28;20193;-64
2022/11/20 11:40:14;;;;;;;2.00;1.10;;;;;;;19.28;60.65;99893.94;5053834;28;20541;-65
2022/11/20 11:42:43;;;;;;;1.93;0.90;;;;;;;19.26;60.91;99895.53;5042123;28;20226;-66
2022/11/20 11:45:17;;;;;;;2.50;1.00;;;;;;;19.28;60.88;99891.06;5064777;28;20454;-64